createdAt,value
2019-01-22T00:00:19.870Z,91.53
2019-01-22T00:02:48.387Z,86.80
2019-01-22T00:05:16.971Z,91.73
2019-01-22T00:07:45.544Z,82.67
2019-01-22T00:10:16.800Z,88.63
2019-01-22T00:12:45.546Z,83.57
2019-01-22T00:15:14.731Z,91.33
2019-01-22T00:17:43.551Z,79.60
2019-01-22T00:20:13.572Z,93.77
2019-01-22T00:22:42.231Z,81.37
2019-01-22T00:25:12.370Z,87.63
2019-01-22T00:27:43.604Z,91.17
2019-01-22T00:30:21.212Z,86.50
2019-01-22T00:32:50.078Z,94.80
2019-01-22T00:35:18.653Z,81.97
2019-01-22T00:37:47.241Z,90.90
2019-01-22T00:40:19.787Z,79.00
2019-01-22T00:42:48.722Z,77.40
2019-01-22T00:45:17.402Z,93.37
2019-01-22T00:47:45.944Z,89.20
2019-01-22T00:50:16.862Z,84.80
2019-01-22T00:52:45.510Z,84.60
2019-01-22T00:55:17.247Z,89.23
2019-01-22T00:57:45.879Z,79.47
2019-01-22T01:00:23.585Z,77.77
2019-01-22T01:02:52.169Z,75.60
2019-01-22T01:05:20.857Z,82.33
2019-01-22T01:07:49.414Z,75.03
2019-01-22T01:10:18.407Z,82.90
2019-01-22T01:12:50.224Z,93.03
2019-01-22T01:15:19.255Z,88.77
2019-01-22T01:17:47.858Z,80.97
2019-01-22T01:20:19.188Z,87.33
2019-01-22T01:22:47.741Z,87.97
2019-01-22T01:25:18.501Z,90.13
2019-01-22T01:27:47.066Z,88.27
2019-01-22T01:30:18.180Z,88.77
2019-01-22T01:32:46.739Z,90.63
2019-01-22T01:35:15.373Z,81.30
2019-01-22T01:37:43.984Z,85.67
2019-01-22T01:40:14.621Z,82.03
2019-01-22T01:42:43.236Z,96.63
2019-01-22T01:45:11.973Z,88.67
2019-01-22T01:47:40.896Z,81.57
2019-01-22T01:50:12.288Z,78.43
2019-01-22T01:52:40.938Z,94.10
2019-01-22T01:55:10.974Z,85.07
2019-01-22T01:57:41.093Z,82.50
2019-01-22T02:00:17.915Z,77.23
2019-01-22T02:02:46.715Z,87.23
2019-01-22T02:05:15.452Z,87.03
2019-01-22T02:07:44.013Z,98.17
2019-01-22T02:10:15.056Z,80.53
2019-01-22T02:12:58.956Z,93.43
2019-01-22T02:15:48.570Z,86.93
2019-01-22T02:18:34.744Z,98.57
2019-01-22T02:21:18.274Z,77.70
2019-01-22T02:24:18.222Z,98.57
2019-01-22T02:27:01.615Z,98.30
2019-01-22T02:29:36.256Z,88.83
2019-01-22T02:32:24.805Z,80.80
2019-01-22T02:35:01.978Z,81.80
2019-01-22T02:38:01.846Z,82.40
2019-01-22T02:40:36.169Z,86.60
2019-01-22T02:43:27.474Z,83.00
2019-01-22T02:46:15.261Z,92.10
2019-01-22T02:48:49.919Z,85.40
2019-01-22T02:51:21.538Z,81.27
2019-01-22T02:53:56.073Z,80.40
2019-01-22T02:56:39.569Z,92.60
2019-01-22T02:59:32.135Z,77.50
2019-01-22T03:02:39.437Z,84.93
2019-01-22T03:05:22.916Z,77.20
2019-01-22T03:08:13.559Z,72.90
2019-01-22T03:10:45.341Z,80.93
2019-01-22T03:13:19.470Z,77.20
2019-01-22T03:16:24.203Z,87.37
2019-01-22T03:18:55.778Z,80.80
2019-01-22T03:21:27.592Z,78.43
2019-01-22T03:24:14.204Z,75.80
2019-01-22T03:27:08.438Z,78.90
2019-01-22T03:29:45.979Z,74.27
2019-01-22T03:32:26.254Z,77.57
2019-01-22T03:35:14.109Z,82.87
2019-01-22T03:38:14.139Z,77.57
2019-01-22T03:41:03.193Z,76.10
2019-01-22T03:43:43.591Z,79.70
2019-01-22T03:46:18.075Z,83.17
2019-01-22T03:49:07.375Z,78.07
2019-01-22T03:51:44.814Z,92.67
2019-01-22T03:54:31.344Z,86.07
2019-01-22T03:57:08.770Z,85.50
2019-01-22T03:59:37.394Z,79.73
2019-01-22T04:02:07.408Z,81.83
2019-01-22T04:04:35.931Z,80.50
2019-01-22T04:07:04.687Z,79.40
2019-01-22T04:09:35.943Z,80.57
2019-01-22T04:12:04.746Z,77.03
2019-01-22T04:14:33.566Z,76.17
2019-01-22T04:17:02.657Z,89.80
2019-01-22T04:19:31.380Z,73.57
2019-01-22T04:21:59.980Z,72.67
2019-01-22T04:24:34.404Z,79.30
2019-01-22T04:27:11.620Z,80.17
2019-01-22T04:29:55.523Z,80.97
2019-01-22T04:32:32.946Z,78.70
2019-01-22T04:35:16.144Z,71.03
2019-01-22T04:38:02.421Z,66.07
2019-01-22T04:40:36.686Z,84.27
2019-01-22T04:43:33.675Z,75.07
2019-01-22T04:46:14.385Z,76.20
2019-01-22T04:49:09.823Z,81.57
2019-01-22T04:51:44.742Z,74.30
2019-01-22T04:54:40.599Z,78.23
2019-01-22T04:57:15.284Z,75.30
2019-01-22T05:00:08.877Z,69.50
2019-01-22T05:02:56.842Z,81.57
2019-01-22T05:05:37.495Z,73.93
2019-01-22T05:08:20.763Z,68.40
2019-01-22T05:11:17.908Z,72.80
2019-01-22T05:13:52.444Z,74.13
2019-01-22T05:16:29.312Z,76.60
2019-01-22T05:19:06.389Z,69.40
2019-01-22T05:21:54.551Z,73.13
2019-01-22T05:24:43.878Z,72.60
2019-01-22T05:27:32.811Z,66.47
2019-01-22T05:30:33.118Z,76.63
2019-01-22T05:33:34.667Z,73.43
2019-01-22T05:36:33.546Z,69.27
2019-01-22T05:39:19.773Z,72.30
2019-01-22T05:42:10.479Z,81.40
2019-01-22T05:44:47.695Z,64.73
2019-01-22T05:47:31.032Z,75.57
2019-01-22T05:50:02.590Z,66.70
2019-01-22T05:52:40.114Z,72.30
2019-01-22T05:55:17.724Z,75.63
2019-01-22T05:57:49.405Z,85.97
2019-01-22T06:00:32.780Z,69.40
2019-01-22T06:03:02.809Z,80.70
2019-01-22T06:05:55.426Z,74.97
2019-01-22T06:08:48.191Z,65.43
2019-01-22T06:11:34.900Z,79.27
2019-01-22T06:14:27.163Z,71.70
2019-01-22T06:17:34.920Z,76.03
2019-01-22T06:20:19.882Z,71.87
2019-01-22T06:23:03.188Z,74.33
2019-01-22T06:25:49.498Z,66.17
2019-01-22T06:28:19.734Z,73.20
2019-01-22T06:31:12.217Z,74.13
2019-01-22T06:33:46.568Z,72.07
2019-01-22T06:36:20.972Z,74.03
2019-01-22T06:38:58.587Z,73.03
2019-01-22T06:41:41.987Z,68.97
2019-01-22T06:44:22.906Z,85.80
2019-01-22T06:46:54.646Z,75.60
2019-01-22T06:49:29.244Z,67.50
2019-01-22T06:52:33.727Z,65.80
2019-01-22T06:55:08.319Z,81.47
2019-01-22T06:57:48.741Z,74.70
2019-01-22T07:00:45.782Z,71.93
2019-01-22T07:03:22.547Z,63.67
2019-01-22T07:06:22.753Z,68.13
2019-01-22T07:08:57.441Z,70.93
2019-01-22T07:11:31.991Z,73.57
2019-01-22T07:14:15.908Z,71.13
2019-01-22T07:17:02.393Z,77.30
2019-01-22T07:19:48.811Z,84.33
2019-01-22T07:22:32.543Z,78.37
2019-01-22T07:25:18.952Z,65.97
2019-01-22T07:28:20.431Z,75.60
2019-01-22T07:31:05.899Z,72.50
2019-01-22T07:33:53.208Z,86.67
2019-01-22T07:36:33.746Z,67.47
2019-01-22T07:39:07.856Z,75.63
2019-01-22T07:41:51.618Z,69.43
2019-01-22T07:44:34.806Z,75.47
2019-01-22T07:47:21.121Z,67.67
2019-01-22T07:49:58.172Z,75.53
2019-01-22T07:52:44.409Z,65.60
2019-01-22T07:55:30.791Z,74.30
2019-01-22T07:58:05.464Z,76.30
2019-01-22T08:00:48.941Z,77.20
2019-01-22T08:03:54.550Z,71.77
2019-01-22T08:06:30.638Z,68.10
2019-01-22T08:09:08.027Z,76.63
2019-01-22T08:11:48.615Z,65.07
2019-01-22T08:14:32.130Z,69.70
2019-01-22T08:17:21.561Z,69.97
2019-01-22T08:20:02.103Z,85.17
2019-01-22T08:22:36.446Z,71.27
2019-01-22T08:25:28.722Z,63.20
2019-01-22T08:28:18.196Z,77.13
2019-01-22T08:30:55.456Z,74.93
2019-01-22T08:33:44.835Z,66.17
2019-01-22T08:36:49.342Z,82.23
2019-01-22T08:39:32.755Z,74.70
2019-01-22T08:42:12.940Z,72.57
2019-01-22T08:44:59.328Z,70.37
2019-01-22T08:47:50.185Z,65.80
2019-01-22T08:50:39.660Z,76.47
2019-01-22T08:53:11.271Z,73.80
2019-01-22T08:55:54.743Z,73.83
2019-01-22T08:58:44.042Z,63.30
2019-01-22T09:01:39.246Z,68.87
2019-01-22T09:04:33.148Z,66.57
2019-01-22T09:07:13.681Z,64.07
2019-01-22T09:10:13.889Z,68.80
2019-01-22T09:12:57.216Z,64.47
2019-01-22T09:15:56.073Z,70.73
2019-01-22T09:18:36.706Z,84.80
2019-01-22T09:21:29.226Z,68.37
2019-01-22T09:24:01.889Z,58.23
2019-01-22T09:26:42.152Z,61.33
2019-01-22T09:29:30.304Z,66.00
2019-01-22T09:32:15.670Z,59.73
2019-01-22T09:34:56.141Z,59.07
2019-01-22T09:37:28.078Z,68.87
2019-01-22T09:39:56.896Z,69.90
2019-01-22T09:42:25.465Z,63.03
2019-01-22T09:44:54.082Z,63.67
2019-01-22T09:47:22.613Z,58.90
2019-01-22T09:49:51.114Z,68.37
2019-01-22T09:52:19.645Z,65.70
2019-01-22T09:54:48.203Z,66.43
2019-01-22T09:57:16.716Z,61.87
2019-01-22T09:59:45.287Z,64.23
2019-01-22T10:02:16.926Z,62.83
2019-01-22T10:04:48.648Z,64.30
2019-01-22T10:07:18.857Z,58.87
2019-01-22T10:09:47.455Z,59.47
2019-01-22T10:12:15.885Z,58.30
2019-01-22T10:14:44.478Z,63.37
2019-01-22T10:17:14.492Z,53.43
2019-01-22T10:19:43.055Z,63.63
2019-01-22T10:22:11.703Z,69.40
2019-01-22T10:24:40.301Z,56.40
2019-01-22T10:27:08.833Z,48.13
2019-01-22T10:29:40.222Z,53.10
2019-01-22T10:32:08.815Z,50.63
2019-01-22T10:34:37.306Z,50.40
2019-01-22T10:37:05.900Z,59.87
2019-01-22T10:39:34.546Z,55.47
2019-01-22T10:42:04.797Z,57.23
2019-01-22T10:44:33.308Z,57.20
2019-01-22T10:47:01.859Z,62.13
2019-01-22T10:49:31.993Z,65.30
2019-01-22T10:52:00.479Z,59.63
2019-01-22T10:54:29.078Z,65.67
2019-01-22T10:56:57.681Z,57.90
2019-01-22T10:59:26.419Z,59.07
2019-01-22T11:01:54.953Z,61.40
2019-01-22T11:04:23.457Z,58.30
2019-01-22T11:06:52.979Z,50.80
2019-01-22T11:09:21.528Z,59.50
2019-01-22T11:11:50.030Z,63.50
2019-01-22T11:14:18.606Z,52.13
2019-01-22T11:16:47.720Z,55.60
2019-01-22T11:19:16.346Z,55.13
2019-01-22T11:21:44.973Z,54.90
2019-01-22T11:24:13.622Z,54.03
2019-01-22T11:26:42.108Z,46.50
2019-01-22T11:29:10.695Z,52.20
2019-01-22T11:31:39.195Z,51.87
2019-01-22T11:34:07.780Z,54.33
2019-01-22T11:36:36.381Z,43.90
2019-01-22T11:39:08.301Z,54.90
2019-01-22T11:41:36.882Z,59.40
2019-01-22T11:44:05.533Z,46.43
2019-01-22T11:46:34.077Z,47.97
2019-01-22T11:49:02.627Z,44.20
2019-01-22T11:51:31.162Z,52.23
2019-01-22T11:53:59.644Z,64.83
2019-01-22T11:56:29.053Z,46.13
2019-01-22T11:58:57.513Z,52.97
2019-01-22T12:01:25.983Z,41.57
2019-01-22T12:03:54.512Z,44.00
2019-01-22T12:06:24.134Z,53.30
2019-01-22T12:08:52.616Z,44.47
2019-01-22T12:11:21.177Z,48.50
2019-01-22T12:13:53.951Z,44.90
2019-01-22T12:16:20.133Z,39.37
2019-01-22T12:18:48.704Z,48.83
2019-01-22T12:21:19.972Z,49.67
2019-01-22T12:23:48.480Z,48.33
2019-01-22T12:26:16.978Z,50.53
2019-01-22T12:28:45.461Z,51.80
2019-01-22T12:31:13.951Z,51.77
2019-01-22T12:33:47.050Z,57.70
2019-01-22T12:36:15.600Z,51.13
2019-01-22T12:38:44.115Z,61.63
2019-01-22T12:41:12.673Z,50.87
2019-01-22T12:43:41.207Z,52.63
2019-01-22T12:46:09.760Z,52.43
2019-01-22T12:48:38.585Z,62.33
2019-01-22T12:51:07.161Z,57.00
2019-01-22T12:53:35.638Z,50.83
2019-01-22T12:56:05.817Z,49.83
2019-01-22T12:58:34.358Z,50.97
2019-01-22T13:01:02.842Z,61.43
2019-01-22T13:03:31.429Z,48.23
2019-01-22T13:06:00.117Z,48.50
2019-01-22T13:08:28.706Z,74.13
2019-01-22T13:10:57.293Z,54.13
2019-01-22T13:13:27.457Z,50.67
2019-01-22T13:15:57.541Z,46.50
2019-01-22T13:18:26.114Z,59.27
2019-01-22T13:20:54.961Z,47.50
2019-01-22T13:23:23.598Z,52.50
2019-01-22T13:25:53.649Z,50.03
2019-01-22T13:28:22.218Z,59.03
2019-01-22T13:30:50.808Z,51.67
2019-01-22T13:33:21.988Z,50.70
2019-01-22T13:35:52.094Z,48.47
2019-01-22T13:38:23.566Z,54.80
2019-01-22T13:40:52.025Z,51.87
2019-01-22T13:43:20.712Z,46.63
2019-01-22T13:45:49.353Z,57.83
2019-01-22T13:48:17.879Z,46.30
2019-01-22T13:50:46.440Z,47.13
2019-01-22T13:53:15.058Z,46.23
2019-01-22T13:55:43.874Z,40.80
2019-01-22T13:58:12.946Z,47.70
2019-01-22T14:00:41.561Z,53.17
2019-01-22T14:03:10.197Z,43.67
2019-01-22T14:05:38.820Z,48.07
2019-01-22T14:08:07.668Z,46.27
2019-01-22T14:10:36.252Z,47.03
2019-01-22T14:13:05.208Z,41.30
2019-01-22T14:15:38.974Z,45.50
2019-01-22T14:18:08.249Z,47.00
2019-01-22T14:20:38.482Z,44.00
2019-01-22T14:23:07.061Z,40.10
2019-01-22T14:25:38.508Z,37.10
2019-01-22T14:28:07.151Z,42.27
2019-01-22T14:30:39.436Z,46.17
2019-01-22T14:33:08.052Z,46.23
2019-01-22T14:35:36.733Z,47.80
2019-01-22T14:38:05.390Z,44.90
2019-01-22T14:40:33.848Z,42.87
2019-01-22T14:43:02.436Z,36.97
2019-01-22T14:45:31.038Z,40.53
2019-01-22T14:47:59.665Z,47.53
2019-01-22T14:50:30.750Z,45.93
2019-01-22T14:52:59.658Z,44.33
2019-01-22T14:55:28.632Z,49.53
2019-01-22T14:57:57.224Z,42.50
2019-01-22T15:00:28.125Z,43.50
2019-01-22T15:02:57.389Z,43.37
2019-01-22T15:05:26.234Z,46.80
2019-01-22T15:07:54.836Z,38.77
2019-01-22T15:10:23.454Z,39.90
2019-01-22T15:12:54.778Z,49.63
2019-01-22T15:15:23.308Z,43.30
2019-01-22T15:17:51.898Z,47.50
2019-01-22T15:20:22.228Z,45.60
2019-01-22T15:22:50.787Z,50.83
2019-01-22T15:25:19.370Z,46.20
2019-01-22T15:27:47.952Z,49.53
2019-01-22T15:30:19.301Z,41.43
2019-01-22T15:32:47.905Z,46.80
2019-01-22T15:35:16.358Z,43.50
2019-01-22T15:37:45.010Z,47.80
2019-01-22T15:40:19.615Z,54.43
2019-01-22T15:42:48.166Z,45.17
2019-01-22T15:45:16.735Z,45.33
2019-01-22T15:47:45.317Z,43.20
2019-01-22T15:50:18.537Z,48.10
2019-01-22T15:52:47.151Z,46.00
2019-01-22T15:55:18.978Z,45.43
2019-01-22T15:57:47.426Z,52.77
2019-01-22T16:00:24.015Z,46.80
2019-01-22T16:02:52.545Z,46.43
2019-01-22T16:05:21.132Z,50.30
2019-01-22T16:07:49.766Z,42.70
2019-01-22T16:10:18.359Z,50.23
2019-01-22T16:12:46.897Z,55.83
2019-01-22T16:15:20.129Z,48.20
2019-01-22T16:17:49.107Z,50.83
2019-01-22T16:20:23.665Z,43.73
2019-01-22T16:22:52.305Z,49.70
2019-01-22T16:25:22.112Z,46.70
2019-01-22T16:27:50.758Z,46.23
2019-01-22T16:30:26.115Z,43.37
2019-01-22T16:32:54.810Z,47.10
2019-01-22T16:35:24.599Z,46.97
2019-01-22T16:37:53.231Z,45.20
2019-01-22T16:40:21.807Z,48.93
2019-01-22T16:42:50.885Z,51.83
2019-01-22T16:45:25.380Z,45.87
2019-01-22T16:47:54.014Z,49.00
2019-01-22T16:50:22.536Z,51.63
2019-01-22T16:52:51.102Z,50.37
2019-01-22T16:55:26.362Z,50.70
2019-01-22T16:57:54.985Z,47.87
2019-01-22T17:00:26.332Z,59.53
2019-01-22T17:02:54.952Z,51.73
2019-01-22T17:05:23.803Z,46.77
2019-01-22T17:07:52.407Z,48.60
2019-01-22T17:10:21.482Z,61.80
2019-01-22T17:12:50.712Z,54.67
2019-01-22T17:15:19.641Z,52.57
2019-01-22T17:17:48.651Z,61.20
2019-01-22T17:20:26.301Z,51.83
2019-01-22T17:22:54.909Z,51.03
2019-01-22T17:25:23.989Z,50.77
2019-01-22T17:27:52.571Z,48.83
2019-01-22T17:30:22.938Z,51.30
2019-01-22T17:32:53.209Z,61.47
2019-01-22T17:35:21.813Z,64.47
2019-01-22T17:37:50.363Z,49.53
2019-01-22T17:40:19.003Z,55.73
2019-01-22T17:42:47.633Z,50.83
2019-01-22T17:45:16.231Z,49.33
2019-01-22T17:47:44.946Z,50.17
2019-01-22T17:50:15.604Z,58.40
2019-01-22T17:52:44.298Z,57.60
2019-01-22T17:55:13.517Z,53.90
2019-01-22T17:57:42.343Z,60.00
2019-01-22T18:00:17.518Z,53.60
2019-01-22T18:02:46.006Z,52.70
2019-01-22T18:05:16.410Z,50.83
2019-01-22T18:07:44.883Z,52.40
2019-01-22T18:10:15.805Z,54.23
2019-01-22T18:12:44.376Z,65.33
2019-01-22T18:15:15.453Z,64.17
2019-01-22T18:17:44.057Z,54.77
2019-01-22T18:20:15.731Z,59.20
2019-01-22T18:22:44.331Z,60.63
2019-01-22T18:25:12.917Z,66.80
2019-01-22T18:27:41.565Z,60.00
2019-01-22T18:30:13.300Z,54.33
2019-01-22T18:32:41.855Z,59.27
2019-01-22T18:35:13.198Z,59.13
2019-01-22T18:37:41.777Z,52.73
2019-01-22T18:40:12.988Z,57.10
2019-01-22T18:42:41.513Z,62.57
2019-01-22T18:45:12.955Z,57.87
2019-01-22T18:47:41.506Z,55.60
2019-01-22T18:50:13.069Z,68.77
2019-01-22T18:52:41.892Z,53.73
2019-01-22T18:55:10.519Z,66.43
2019-01-22T18:57:39.094Z,57.80
2019-01-22T19:00:10.741Z,57.97
2019-01-22T19:02:39.376Z,63.50
2019-01-22T19:05:09.222Z,55.27
2019-01-22T19:07:37.994Z,58.13
2019-01-22T19:10:09.850Z,56.97
2019-01-22T19:12:38.564Z,53.23
2019-01-22T19:15:10.546Z,59.90
2019-01-22T19:17:39.153Z,61.23
2019-01-22T19:20:09.321Z,57.67
2019-01-22T19:22:38.332Z,61.57
2019-01-22T19:25:12.461Z,64.33
2019-01-22T19:27:42.943Z,54.27
2019-01-22T19:30:17.216Z,62.33
2019-01-22T19:32:45.773Z,51.33
2019-01-22T19:35:14.493Z,50.43
2019-01-22T19:37:43.384Z,56.30
2019-01-22T19:40:16.528Z,50.87
2019-01-22T19:42:45.582Z,52.23
2019-01-22T19:45:19.156Z,56.70
2019-01-22T19:47:47.661Z,57.40
2019-01-22T19:50:17.094Z,58.47
2019-01-22T19:52:45.690Z,62.40
2019-01-22T19:55:14.362Z,57.43
2019-01-22T19:57:42.963Z,55.33
2019-01-22T20:00:26.083Z,51.20
2019-01-22T20:02:54.723Z,49.93
2019-01-22T20:05:23.580Z,52.50
2019-01-22T20:07:52.204Z,53.90
2019-01-22T20:10:20.953Z,51.20
2019-01-22T20:12:49.536Z,48.20
2019-01-22T20:15:20.546Z,48.60
2019-01-22T20:17:49.290Z,50.43
2019-01-22T20:20:19.482Z,60.63
2019-01-22T20:22:49.227Z,51.00
2019-01-22T20:25:18.134Z,53.43
2019-01-22T20:27:48.261Z,61.80
2019-01-22T20:30:22.945Z,51.73
2019-01-22T20:32:51.546Z,54.77
2019-01-22T20:35:20.177Z,49.07
2019-01-22T20:37:48.801Z,48.77
2019-01-22T20:40:17.335Z,58.27
2019-01-22T20:42:45.885Z,47.90
2019-01-22T20:45:16.858Z,49.33
2019-01-22T20:47:45.503Z,56.03
2019-01-22T20:50:19.366Z,46.50
2019-01-22T20:52:45.679Z,48.10
2019-01-22T20:55:16.548Z,49.47
2019-01-22T20:57:45.120Z,53.20
2019-01-22T21:00:16.551Z,65.97
2019-01-22T21:02:45.292Z,51.20
2019-01-22T21:05:19.636Z,59.60
2019-01-22T21:07:48.339Z,54.80
2019-01-22T21:10:21.699Z,55.83
2019-01-22T21:12:50.271Z,58.73
2019-01-22T21:15:18.923Z,55.73
2019-01-22T21:17:47.521Z,59.60
2019-01-22T21:20:18.537Z,61.27
2019-01-22T21:22:47.111Z,53.63
2019-01-22T21:25:17.960Z,56.27
2019-01-22T21:27:46.442Z,52.77
2019-01-22T21:30:23.974Z,55.00
2019-01-22T21:32:52.570Z,62.33
2019-01-22T21:35:21.202Z,61.70
2019-01-22T21:37:49.914Z,57.40
2019-01-22T21:40:19.246Z,67.60
2019-01-22T21:42:48.097Z,58.60
2019-01-22T21:45:21.719Z,65.07
2019-01-22T21:47:50.310Z,51.40
2019-01-22T21:50:18.984Z,56.93
2019-01-22T21:52:47.803Z,60.03
2019-01-22T21:55:19.119Z,60.63
2019-01-22T21:57:47.710Z,66.37
2019-01-22T22:00:18.397Z,68.00
2019-01-22T22:02:47.029Z,63.33
2019-01-22T22:05:16.906Z,80.20
2019-01-22T22:07:45.534Z,68.73
2019-01-22T22:10:16.403Z,80.97
2019-01-22T22:12:44.931Z,69.90
2019-01-22T22:15:16.334Z,80.40
2019-01-22T22:17:45.155Z,71.33
2019-01-22T22:20:15.774Z,72.20
2019-01-22T22:22:44.744Z,90.43
2019-01-22T22:25:15.693Z,68.57
2019-01-22T22:27:44.257Z,80.93
2019-01-22T22:30:16.031Z,76.40
2019-01-22T22:32:44.673Z,71.73
2019-01-22T22:35:13.405Z,94.60
2019-01-22T22:37:42.156Z,83.23
2019-01-22T22:40:14.092Z,86.10
2019-01-22T22:42:42.682Z,85.77
2019-01-22T22:45:13.967Z,90.73
2019-01-22T22:47:42.568Z,92.73
2019-01-22T22:50:14.179Z,79.95
2019-01-22T22:52:42.761Z,83.10
2019-01-22T22:55:11.356Z,86.87
2019-01-22T22:57:39.985Z,76.07
2019-01-22T23:00:27.901Z,80.37
2019-01-22T23:02:56.749Z,83.67
2019-01-22T23:05:25.444Z,77.67
2019-01-22T23:07:54.013Z,75.77
2019-01-22T23:10:22.570Z,76.93
2019-01-22T23:12:51.369Z,69.07
2019-01-22T23:15:19.916Z,86.07
2019-01-22T23:17:48.810Z,99.07
2019-01-22T23:20:17.366Z,72.67
2019-01-22T23:22:46.279Z,76.80
2019-01-22T23:25:14.950Z,85.53
2019-01-22T23:27:43.579Z,83.03
2019-01-22T23:30:14.933Z,80.87
2019-01-22T23:32:43.412Z,92.53
2019-01-22T23:35:12.086Z,91.10
2019-01-22T23:37:40.643Z,96.53
2019-01-22T23:40:11.799Z,87.27
2019-01-22T23:42:40.371Z,96.77
2019-01-22T23:45:10.963Z,92.43
2019-01-22T23:47:39.577Z,80.00
2019-01-22T23:50:13.655Z,95.40
2019-01-22T23:52:42.233Z,94.27
2019-01-22T23:55:12.152Z,80.37
2019-01-22T23:57:40.774Z,97.23
